createdAt,value
2022-11-01T00:01:10.656Z,100790.66
2022-11-01T00:03:42.373Z,100788.74
2022-11-01T00:06:14.176Z,100780.98
2022-11-01T00:08:46.013Z,100784.09
2022-11-01T00:11:20.123Z,100782.28
2022-11-01T00:13:52.921Z,100781.33
2022-11-01T00:16:23.082Z,100785.77
2022-11-01T00:18:55.079Z,100787.06
2022-11-01T00:21:26.874Z,100782.04
2022-11-01T00:23:58.492Z,100784.79
2022-11-01T00:26:30.251Z,100784.99
2022-11-01T00:29:02.027Z,100787.18
2022-11-01T00:31:34.051Z,100785.35
2022-11-01T00:34:06.971Z,100778.32
2022-11-01T00:36:38.987Z,100775.14
2022-11-01T00:39:14.433Z,100767.88
2022-11-01T00:41:46.073Z,100764.98
2022-11-01T00:44:17.733Z,100763.30
2022-11-01T00:46:49.804Z,100755.29
2022-11-01T00:49:21.446Z,100750.23
2022-11-01T00:51:53.194Z,100753.63
2022-11-01T00:54:24.814Z,100747.86
2022-11-01T00:56:56.510Z,100741.95
2022-11-01T00:59:28.221Z,100735.45
2022-11-01T01:01:59.887Z,100734.30
2022-11-01T01:04:31.829Z,100735.90
2022-11-01T01:07:03.448Z,100736.15
2022-11-01T01:09:35.317Z,100732.70
2022-11-01T01:12:07.513Z,100731.87
2022-11-01T01:14:39.097Z,100728.83
2022-11-01T01:17:10.818Z,100722.52
2022-11-01T01:19:42.980Z,100719.39
2022-11-01T01:22:15.211Z,100712.59
2022-11-01T01:24:47.737Z,100712.35
2022-11-01T01:27:20.131Z,100710.75
2022-11-01T01:29:52.474Z,100703.02
2022-11-01T01:32:25.701Z,100710.53
2022-11-01T01:34:57.424Z,100706.13
2022-11-01T01:37:29.040Z,100706.45
2022-11-01T01:40:00.804Z,100706.89
2022-11-01T01:42:34.287Z,100704.64
2022-11-01T01:45:28.288Z,100705.92
2022-11-01T01:48:08.004Z,100706.05
2022-11-01T01:50:45.620Z,100715.34
2022-11-01T01:53:22.290Z,100720.03
2022-11-01T01:55:58.775Z,100723.58
2022-11-01T01:58:33.250Z,100724.38
2022-11-01T02:01:05.000Z,100720.63
2022-11-01T02:03:38.709Z,100723.98
2022-11-01T02:06:14.074Z,100727.48
2022-11-01T02:08:48.899Z,100721.66
2022-11-01T02:11:21.976Z,100716.95
2022-11-01T02:13:53.655Z,100710.81
2022-11-01T02:16:45.778Z,100703.60
2022-11-01T02:19:54.676Z,100702.22
2022-11-01T02:22:34.055Z,100691.66
2022-11-01T02:25:31.891Z,100680.42
2022-11-01T02:28:23.313Z,100675.27
2022-11-01T02:31:10.598Z,100671.03
2022-11-01T02:33:47.952Z,100673.51
2022-11-01T02:36:25.361Z,100677.03
2022-11-01T02:39:01.752Z,100690.07
2022-11-01T02:41:38.901Z,100698.00
2022-11-01T02:44:16.993Z,100694.55
2022-11-01T02:47:02.323Z,100691.23
2022-11-01T02:49:38.506Z,100686.29
2022-11-01T02:52:14.014Z,100680.61
2022-11-01T02:54:50.982Z,100678.79
2022-11-01T02:57:37.687Z,100674.77
2022-11-01T03:00:23.403Z,100672.55
2022-11-01T03:03:01.317Z,100664.73
2022-11-01T03:05:46.348Z,100659.30
2022-11-01T03:08:21.899Z,100661.54
2022-11-01T03:11:04.857Z,100659.44
2022-11-01T03:13:53.994Z,100662.96
2022-11-01T03:16:32.400Z,100673.03
2022-11-01T03:19:17.916Z,100682.94
2022-11-01T03:21:59.824Z,100688.94
2022-11-01T03:24:34.587Z,100692.19
2022-11-01T03:27:11.448Z,100699.11
2022-11-01T03:29:47.942Z,100698.45
2022-11-01T03:32:22.441Z,100693.61
2022-11-01T03:34:54.700Z,100695.39
2022-11-01T03:37:28.125Z,100696.20
2022-11-01T03:40:03.666Z,100695.96
2022-11-01T03:42:37.275Z,100695.06
2022-11-01T03:45:15.690Z,100698.52
2022-11-01T03:47:47.594Z,100699.71
2022-11-01T03:50:21.921Z,100699.66
2022-11-01T03:52:54.091Z,100701.64
2022-11-01T03:55:26.589Z,100705.65
2022-11-01T03:58:00.623Z,100708.83
2022-11-01T04:00:34.872Z,100712.88
2022-11-01T04:03:07.032Z,100704.38
2022-11-01T04:05:40.120Z,100704.44
2022-11-01T04:08:13.316Z,100700.84
2022-11-01T04:10:44.910Z,100685.92
2022-11-01T04:13:16.571Z,100669.48
2022-11-01T04:16:05.923Z,100662.48
2022-11-01T04:19:09.450Z,100660.98
2022-11-01T04:21:41.795Z,100641.98
2022-11-01T04:24:21.078Z,100624.80
2022-11-01T04:26:53.765Z,100619.66
2022-11-01T04:29:25.479Z,100610.23
2022-11-01T04:31:57.275Z,100593.20
2022-11-01T04:34:44.196Z,100583.23
2022-11-01T04:37:16.171Z,100588.83
2022-11-01T04:39:47.814Z,100569.85
2022-11-01T04:42:19.394Z,100571.73
2022-11-01T04:44:51.242Z,100557.55
2022-11-01T04:47:22.937Z,100546.73
2022-11-01T04:49:54.600Z,100547.80
2022-11-01T04:52:26.272Z,100553.29
2022-11-01T04:54:57.922Z,100583.29
2022-11-01T04:57:29.567Z,100610.66
2022-11-01T05:00:01.291Z,100615.81
2022-11-01T05:02:32.977Z,100594.36
2022-11-01T05:05:04.909Z,100585.23
2022-11-01T05:07:37.217Z,100582.10
2022-11-01T05:10:10.928Z,100580.16
2022-11-01T05:12:42.738Z,100590.91
2022-11-01T05:15:14.493Z,100598.23
2022-11-01T05:17:46.232Z,100610.77
2022-11-01T05:20:17.948Z,100614.33
2022-11-01T05:22:50.155Z,100606.36
2022-11-01T05:25:21.925Z,100609.71
2022-11-01T05:27:53.583Z,100597.83
2022-11-01T05:30:25.234Z,100591.27
2022-11-01T05:33:01.403Z,100595.40
2022-11-01T05:35:34.654Z,100582.88
2022-11-01T05:38:07.197Z,100587.66
2022-11-01T05:40:38.877Z,100581.42
2022-11-01T05:43:11.129Z,100590.52
2022-11-01T05:45:42.823Z,100592.23
2022-11-01T05:48:14.645Z,100589.98
2022-11-01T05:50:47.862Z,100590.56
2022-11-01T05:53:19.521Z,100572.59
2022-11-01T05:55:51.185Z,100582.09
2022-11-01T05:58:27.987Z,100583.08
2022-11-01T06:01:04.001Z,100589.08
2022-11-01T06:03:36.189Z,100597.55
2022-11-01T06:06:08.357Z,100592.06
2022-11-01T06:08:40.024Z,100584.46
2022-11-01T06:11:12.581Z,100572.13
2022-11-01T06:13:44.233Z,100574.77
2022-11-01T06:16:17.075Z,100572.89
2022-11-01T06:18:48.851Z,100567.95
2022-11-01T06:21:23.054Z,100574.89
2022-11-01T06:23:57.667Z,100570.86
2022-11-01T06:26:29.271Z,100571.38
2022-11-01T06:29:03.234Z,100572.91
2022-11-01T06:31:35.107Z,100562.38
2022-11-01T06:34:06.814Z,100555.65
2022-11-01T06:36:38.541Z,100562.20
2022-11-01T06:39:11.657Z,100563.72
2022-11-01T06:41:43.521Z,100562.63
2022-11-01T06:44:15.463Z,100564.84
2022-11-01T06:46:47.138Z,100564.28
2022-11-01T06:49:19.463Z,100568.84
2022-11-01T06:51:51.287Z,100570.09
2022-11-01T06:54:22.998Z,100574.75
2022-11-01T06:56:54.589Z,100571.48
2022-11-01T06:59:26.510Z,100568.87
2022-11-01T07:01:58.318Z,100573.04
2022-11-01T07:04:30.236Z,100571.38
2022-11-01T07:07:02.075Z,100573.11
2022-11-01T07:09:35.568Z,100568.35
2022-11-01T07:12:07.519Z,100566.70
2022-11-01T07:14:39.134Z,100571.66
2022-11-01T07:17:11.113Z,100568.25
2022-11-01T07:19:42.754Z,100562.05
2022-11-01T07:22:14.949Z,100563.17
2022-11-01T07:24:46.621Z,100563.45
2022-11-01T07:27:20.580Z,100567.27
2022-11-01T07:29:52.549Z,100561.74
2022-11-01T07:32:24.874Z,100554.33
2022-11-01T07:34:56.549Z,100546.47
2022-11-01T07:37:32.287Z,100545.43
2022-11-01T07:40:04.340Z,100553.20
2022-11-01T07:42:42.072Z,100561.49
2022-11-01T07:45:15.456Z,100571.23
2022-11-01T07:47:47.161Z,100571.98
2022-11-01T07:50:20.238Z,100565.38
2022-11-01T07:52:59.760Z,100567.81
2022-11-01T07:55:31.665Z,100568.76
2022-11-01T07:58:03.907Z,100575.73
2022-11-01T08:00:36.765Z,100577.05
2022-11-01T08:03:10.522Z,100572.35
2022-11-01T08:05:43.305Z,100578.94
2022-11-01T08:08:13.750Z,100583.65
2022-11-01T08:10:45.649Z,100582.76
2022-11-01T08:13:21.609Z,100577.85
2022-11-01T08:15:54.484Z,100576.92
2022-11-01T08:18:25.352Z,100578.56
2022-11-01T08:20:59.115Z,100572.37
2022-11-01T08:23:31.294Z,100565.55
2022-11-01T08:26:04.918Z,100559.53
2022-11-01T08:28:36.597Z,100564.45
2022-11-01T08:31:10.855Z,100554.02
2022-11-01T08:33:43.061Z,100558.86
2022-11-01T08:36:15.349Z,100552.35
2022-11-01T08:38:47.153Z,100544.89
2022-11-01T08:41:19.072Z,100543.55
2022-11-01T08:43:51.203Z,100541.92
2022-11-01T08:46:23.864Z,100548.56
2022-11-01T08:48:59.150Z,100560.15
2022-11-01T08:51:32.675Z,100559.77
2022-11-01T08:54:05.242Z,100554.11
2022-11-01T08:56:37.017Z,100556.34
2022-11-01T08:59:09.229Z,100549.75
2022-11-01T09:01:41.082Z,100550.16
2022-11-01T09:04:13.305Z,100547.59
2022-11-01T09:06:45.008Z,100560.69
2022-11-01T09:09:16.658Z,100563.48
2022-11-01T09:11:48.507Z,100559.19
2022-11-01T09:14:23.977Z,100559.48
2022-11-01T09:16:55.738Z,100561.68
2022-11-01T09:19:27.434Z,100560.98
2022-11-01T09:21:59.270Z,100571.13
2022-11-01T09:24:30.976Z,100578.77
2022-11-01T09:27:03.138Z,100575.45
2022-11-01T09:29:35.044Z,100568.46
2022-11-01T09:32:07.747Z,100570.85
2022-11-01T09:34:39.378Z,100578.20
2022-11-01T09:37:11.735Z,100582.77
2022-11-01T09:39:43.449Z,100584.73
2022-11-01T09:42:23.935Z,100586.42
2022-11-01T09:45:00.168Z,100585.58
2022-11-01T09:47:34.049Z,100582.73
2022-11-01T09:50:18.636Z,100577.30
2022-11-01T09:52:51.069Z,100584.14
2022-11-01T09:55:34.664Z,100587.76
2022-11-01T09:58:16.559Z,100586.45
2022-11-01T10:00:57.298Z,100587.39
2022-11-01T10:03:42.654Z,100588.48
2022-11-01T10:06:20.580Z,100588.95
2022-11-01T10:09:04.390Z,100604.80
2022-11-01T10:11:53.549Z,100599.23
2022-11-01T10:14:39.007Z,100595.73
2022-11-01T10:17:15.461Z,100595.60
2022-11-01T10:19:51.633Z,100601.33
2022-11-01T10:22:30.690Z,100597.97
2022-11-01T10:25:08.103Z,100599.79
2022-11-01T10:27:47.155Z,100593.05
2022-11-01T10:30:20.355Z,100588.15
2022-11-01T10:32:58.127Z,100577.05
2022-11-01T10:35:33.575Z,100578.84
2022-11-01T10:38:49.625Z,100571.88
2022-11-01T10:41:16.442Z,100554.11
2022-11-01T10:43:50.615Z,100549.66
2022-11-01T10:46:25.875Z,100552.08
2022-11-01T10:49:01.679Z,100568.80
2022-11-01T10:51:35.692Z,100578.27
2022-11-01T10:54:16.138Z,100577.36
2022-11-01T10:56:52.443Z,100582.19
2022-11-01T10:59:29.343Z,100588.88
2022-11-01T11:02:02.181Z,100583.94
2022-11-01T11:04:34.265Z,100595.40
2022-11-01T11:07:12.505Z,100601.14
2022-11-01T11:09:50.249Z,100595.20
2022-11-01T11:12:25.142Z,100601.59
2022-11-01T11:15:06.360Z,100600.27
2022-11-01T11:17:43.554Z,100601.56
2022-11-01T11:20:21.429Z,100599.06
2022-11-01T11:22:53.477Z,100605.47
2022-11-01T11:25:34.155Z,100600.77
2022-11-01T11:28:07.084Z,100604.08
2022-11-01T11:30:39.424Z,100597.00
2022-11-01T11:33:19.984Z,100591.08
2022-11-01T11:36:00.876Z,100589.44
2022-11-01T11:38:46.037Z,100591.89
2022-11-01T11:41:29.420Z,100596.36
2022-11-01T11:44:01.255Z,100589.10
2022-11-01T11:46:32.975Z,100596.28
2022-11-01T11:49:07.234Z,100594.21
2022-11-01T11:51:41.951Z,100591.39
2022-11-01T11:54:26.075Z,100589.66
2022-11-01T11:57:11.902Z,100586.33
2022-11-01T12:02:25.788Z,100588.72
2022-11-01T12:05:00.560Z,100584.13
2022-11-01T12:07:35.114Z,100580.38
2022-11-01T12:10:28.396Z,100577.49
2022-11-01T12:13:00.455Z,100578.59
2022-11-01T12:15:38.380Z,100581.22
2022-11-01T12:18:18.664Z,100592.75
2022-11-01T12:20:56.201Z,100586.94
2022-11-01T12:23:33.656Z,100587.98
2022-11-01T12:26:13.868Z,100589.40
2022-11-01T12:28:48.975Z,100576.84
2022-11-01T12:31:22.468Z,100581.04
2022-11-01T12:34:01.886Z,100573.37
2022-11-01T12:36:43.752Z,100576.55
2022-11-01T12:39:31.380Z,100562.96
2022-11-01T12:42:06.482Z,100548.42
2022-11-01T12:44:42.553Z,100542.20
2022-11-01T12:47:23.517Z,100536.43
2022-11-01T12:50:00.345Z,100536.44
2022-11-01T12:52:40.711Z,100535.92
2022-11-01T12:55:21.365Z,100534.59
2022-11-01T12:57:52.984Z,100542.17
2022-11-01T13:00:28.525Z,100546.27
2022-11-01T13:03:18.562Z,100547.57
2022-11-01T13:05:58.481Z,100556.50
2022-11-01T13:08:43.830Z,100567.98
2022-11-01T13:11:26.318Z,100585.81
2022-11-01T13:14:13.722Z,100597.92
2022-11-01T13:16:50.941Z,100590.34
2022-11-01T13:19:31.486Z,100583.96
2022-11-01T13:22:08.109Z,100582.39
2022-11-01T13:24:47.004Z,100579.78
2022-11-01T13:27:22.226Z,100578.73
2022-11-01T13:30:01.823Z,100575.42
2022-11-01T13:32:41.894Z,100576.51
2022-11-01T13:35:38.507Z,100570.77
2022-11-01T13:38:20.083Z,100567.77
2022-11-01T13:41:00.101Z,100573.63
2022-11-01T13:43:39.225Z,100577.94
2022-11-01T13:46:31.557Z,100579.16
2022-11-01T13:49:38.833Z,100578.27
2022-11-01T13:52:19.557Z,100578.87
2022-11-01T13:54:57.469Z,100576.30
2022-11-01T13:57:30.203Z,100575.99
2022-11-01T14:00:01.537Z,100580.22
2022-11-01T14:02:57.298Z,100582.98
2022-11-01T14:05:41.885Z,100584.79
2022-11-01T14:08:30.151Z,100581.91
2022-11-01T14:11:02.000Z,100579.62
2022-11-01T14:13:37.192Z,100588.70
2022-11-01T14:16:23.750Z,100588.35
2022-11-01T14:19:20.573Z,100589.73
2022-11-01T14:21:55.036Z,100592.09
2022-11-01T14:24:53.235Z,100587.52
2022-11-01T14:27:36.216Z,100587.66
2022-11-01T14:30:13.640Z,100594.66
2022-11-01T14:32:51.632Z,100596.55
2022-11-01T14:35:27.659Z,100590.85
2022-11-01T14:38:05.321Z,100595.30
2022-11-01T14:40:42.277Z,100592.73
2022-11-01T14:43:20.504Z,100598.02
2022-11-01T14:45:59.615Z,100604.38
2022-11-01T14:48:36.686Z,100604.80
2022-11-01T14:51:16.080Z,100599.33
2022-11-01T14:53:51.689Z,100598.15
2022-11-01T14:56:34.729Z,100598.50
2022-11-01T14:59:20.504Z,100601.06
2022-11-01T15:01:59.481Z,100609.74
2022-11-01T15:04:40.708Z,100611.52
2022-11-01T15:07:26.243Z,100611.14
2022-11-01T15:10:06.009Z,100609.42
2022-11-01T15:12:47.783Z,100610.38
2022-11-01T15:15:23.783Z,100609.86
2022-11-01T15:17:58.137Z,100604.31
2022-11-01T15:20:36.487Z,100607.50
2022-11-01T15:23:12.127Z,100611.64
2022-11-01T15:25:45.692Z,100612.36
2022-11-01T15:28:24.343Z,100615.06
2022-11-01T15:30:59.521Z,100612.89
2022-11-01T15:33:32.193Z,100612.80
2022-11-01T15:36:08.826Z,100616.77
2022-11-01T15:38:52.932Z,100621.44
2022-11-01T15:41:30.862Z,100622.38
2022-11-01T15:44:05.150Z,100622.04
2022-11-01T15:46:43.037Z,100623.96
2022-11-01T15:49:22.743Z,100624.66
2022-11-01T15:52:20.852Z,100630.15
2022-11-01T15:54:58.945Z,100633.44
2022-11-01T15:57:34.509Z,100639.99
2022-11-01T16:00:08.930Z,100640.48
2022-11-01T16:02:50.809Z,100641.77
2022-11-01T16:05:28.038Z,100640.53
2022-11-01T16:08:00.783Z,100641.81
2022-11-01T16:10:31.497Z,100643.23
2022-11-01T16:13:05.110Z,100642.55
2022-11-01T16:15:37.353Z,100642.59
2022-11-01T16:18:18.635Z,100641.14
2022-11-01T16:21:01.429Z,100642.59
2022-11-01T16:23:33.512Z,100638.20
2022-11-01T16:26:09.134Z,100633.09
2022-11-01T16:28:45.714Z,100636.30
2022-11-01T16:31:25.912Z,100641.73
2022-11-01T16:33:58.775Z,100648.48
2022-11-01T16:36:42.743Z,100647.48
2022-11-01T16:39:32.383Z,100650.23
2022-11-01T16:42:04.966Z,100646.38
2022-11-01T16:44:36.906Z,100652.88
2022-11-01T16:47:10.918Z,100670.03
2022-11-01T16:49:48.600Z,100673.13
2022-11-01T16:52:22.616Z,100671.06
2022-11-01T16:54:55.075Z,100672.75
2022-11-01T16:57:29.940Z,100666.52
2022-11-01T17:00:02.152Z,100664.01
2022-11-01T17:02:35.099Z,100666.58
2022-11-01T17:05:18.846Z,100671.84
2022-11-01T17:07:50.730Z,100671.28
2022-11-01T17:10:25.725Z,100673.77
2022-11-01T17:13:02.456Z,100676.47
2022-11-01T17:15:38.690Z,100681.16
2022-11-01T17:18:17.682Z,100684.06
2022-11-01T17:20:52.133Z,100690.27
2022-11-01T17:23:26.309Z,100694.92
2022-11-01T17:25:58.690Z,100698.07
2022-11-01T17:28:31.276Z,100699.71
2022-11-01T17:31:03.356Z,100697.43
2022-11-01T17:33:35.279Z,100699.64
2022-11-01T17:36:07.882Z,100697.34
2022-11-01T17:38:38.207Z,100702.64
2022-11-01T17:41:12.487Z,100700.63
2022-11-01T17:43:44.524Z,100700.40
2022-11-01T17:46:19.673Z,100704.36
2022-11-01T17:48:51.448Z,100700.91
2022-11-01T17:51:23.748Z,100696.04
2022-11-01T17:53:59.281Z,100690.18
2022-11-01T17:56:31.210Z,100690.58
2022-11-01T17:59:02.832Z,100696.52
2022-11-01T18:01:34.531Z,100703.50
2022-11-01T18:04:06.813Z,100703.18
2022-11-01T18:06:40.288Z,100706.13
2022-11-01T18:09:21.103Z,100711.42
2022-11-01T18:12:00.738Z,100704.14
2022-11-01T18:14:47.253Z,100709.25
2022-11-01T18:17:35.781Z,100706.95
2022-11-01T18:20:18.171Z,100708.20
2022-11-01T18:22:55.629Z,100707.94
2022-11-01T18:25:32.867Z,100712.83
2022-11-01T18:28:14.233Z,100717.51
2022-11-01T18:30:48.392Z,100718.38
2022-11-01T18:33:26.374Z,100713.70
2022-11-01T18:36:04.383Z,100708.34
2022-11-01T18:38:43.318Z,100717.12
2022-11-01T18:41:19.255Z,100717.13
2022-11-01T18:43:54.453Z,100716.22
2022-11-01T18:46:32.386Z,100718.82
2022-11-01T18:49:08.490Z,100717.61
2022-11-01T18:51:41.595Z,100718.71
2022-11-01T18:54:27.421Z,100723.48
2022-11-01T18:57:07.926Z,100729.80
2022-11-01T18:59:42.441Z,100731.99
2022-11-01T19:02:19.835Z,100732.26
2022-11-01T19:04:53.661Z,100732.33
2022-11-01T19:07:44.473Z,100734.95
2022-11-01T19:10:23.177Z,100732.35
2022-11-01T19:12:56.257Z,100736.55
2022-11-01T19:15:30.607Z,100737.09
2022-11-01T19:18:07.512Z,100735.44
2022-11-01T19:20:47.305Z,100737.59
2022-11-01T19:23:23.324Z,100735.80
2022-11-01T19:25:55.521Z,100739.85
2022-11-01T19:28:33.404Z,100745.20
2022-11-01T19:31:17.297Z,100746.60
2022-11-01T19:33:55.662Z,100748.81
2022-11-01T19:36:36.209Z,100747.11
2022-11-01T19:39:22.946Z,100751.83
2022-11-01T19:41:59.441Z,100754.50
2022-11-01T19:44:33.365Z,100759.70
2022-11-01T19:47:29.940Z,100761.62
2022-11-01T19:50:02.250Z,100762.36
2022-11-01T19:52:38.075Z,100760.75
2022-11-01T19:55:36.112Z,100762.77
2022-11-01T19:58:25.394Z,100768.89
2022-11-01T20:01:32.659Z,100775.90
2022-11-01T20:04:12.994Z,100778.09
2022-11-01T20:06:50.333Z,100774.02
2022-11-01T20:09:25.488Z,100772.86
2022-11-01T20:11:58.603Z,100777.79
2022-11-01T20:14:33.636Z,100775.59
2022-11-01T20:17:07.648Z,100774.88
2022-11-01T20:19:40.310Z,100777.60
2022-11-01T20:22:12.719Z,100771.33
2022-11-01T20:24:44.630Z,100771.46
2022-11-01T20:27:18.343Z,100778.36
2022-11-01T20:29:50.447Z,100776.64
2022-11-01T20:32:23.124Z,100775.20
2022-11-01T20:34:55.950Z,100777.88
2022-11-01T20:37:29.196Z,100781.34
2022-11-01T20:40:01.899Z,100781.69
2022-11-01T20:42:35.290Z,100782.39
2022-11-01T20:45:08.471Z,100782.98
2022-11-01T20:47:46.109Z,100784.35
2022-11-01T20:50:19.747Z,100782.98
2022-11-01T20:52:52.463Z,100785.31
2022-11-01T20:55:24.717Z,100785.44
2022-11-01T20:57:56.542Z,100786.12
2022-11-01T21:00:28.963Z,100789.14
2022-11-01T21:03:02.343Z,100790.72
2022-11-01T21:05:37.184Z,100793.67
2022-11-01T21:08:18.798Z,100796.14
2022-11-01T21:10:55.204Z,100791.14
2022-11-01T21:13:30.830Z,100790.57
2022-11-01T21:16:05.388Z,100795.91
2022-11-01T21:18:42.035Z,100795.30
2022-11-01T21:21:46.571Z,100796.58
2022-11-01T21:24:36.302Z,100796.14
2022-11-01T21:30:19.748Z,100795.61
2022-11-01T21:32:52.831Z,100788.80
2022-11-01T21:35:42.628Z,100789.13
2022-11-01T21:38:35.513Z,100789.05
2022-11-01T21:41:22.351Z,100787.64
2022-11-01T21:43:54.273Z,100783.89
2022-11-01T21:46:29.081Z,100791.50
2022-11-01T21:49:02.056Z,100793.34
2022-11-01T21:51:37.569Z,100789.89
2022-11-01T21:54:10.494Z,100790.42
2022-11-01T21:56:42.490Z,100788.79
2022-11-01T21:59:16.050Z,100787.92
2022-11-01T22:01:50.784Z,100788.52
2022-11-01T22:04:28.498Z,100788.34
2022-11-01T22:07:02.801Z,100791.70
2022-11-01T22:09:35.402Z,100786.42
2022-11-01T22:12:08.791Z,100788.25
2022-11-01T22:14:41.645Z,100786.54
2022-11-01T22:17:13.784Z,100783.63
2022-11-01T22:19:46.729Z,100784.12
2022-11-01T22:22:18.494Z,100787.63
2022-11-01T22:24:50.121Z,100785.45
2022-11-01T22:27:21.812Z,100789.10
2022-11-01T22:29:53.567Z,100788.90
2022-11-01T22:32:25.253Z,100787.23
2022-11-01T22:34:57.084Z,100789.20
2022-11-01T22:37:31.425Z,100791.67
2022-11-01T22:40:03.603Z,100796.34
2022-11-01T22:42:35.645Z,100793.60
2022-11-01T22:45:15.810Z,100792.87
2022-11-01T22:47:47.921Z,100795.98
2022-11-01T22:50:26.109Z,100801.58
2022-11-01T22:52:57.736Z,100798.45
2022-11-01T22:55:31.221Z,100798.87
2022-11-01T22:58:17.850Z,100799.45
2022-11-01T23:00:50.521Z,100801.98
2022-11-01T23:03:23.263Z,100807.71
2022-11-01T23:05:58.032Z,100803.94
2022-11-01T23:08:32.878Z,100805.66
2022-11-01T23:11:05.872Z,100802.34
2022-11-01T23:13:56.908Z,100802.95
2022-11-01T23:16:32.631Z,100803.84
2022-11-01T23:19:09.305Z,100804.17
2022-11-01T23:21:41.427Z,100801.81
2022-11-01T23:24:13.242Z,100807.27
2022-11-01T23:26:44.938Z,100809.83
2022-11-01T23:29:16.831Z,100813.61
2022-11-01T23:31:48.933Z,100815.34
2022-11-01T23:34:20.721Z,100813.17
2022-11-01T23:36:52.668Z,100815.39
2022-11-01T23:39:29.311Z,100814.30
2022-11-01T23:42:01.273Z,100811.69
2022-11-01T23:44:37.029Z,100809.29
2022-11-01T23:47:20.910Z,100804.83
2022-11-01T23:49:59.401Z,100808.71
2022-11-01T23:52:42.192Z,100807.27
2022-11-01T23:55:23.998Z,100805.88
2022-11-01T23:57:58.091Z,100799.94
